Terminal Aerodrome Forecast
Issued by NWS

Home | Current Version | Previous Version | Text Only | Print | Product List | Glossary On
Versions: 1 2 3 4 5 6 7 8 9 10 11 12 13 14 15 16 17 18 19
000
FTUS43 KICT 220419 AAB
TAFCNU
TAF AMD
KCNU 220419Z 2204/2224 21005KT P6SM VCSH BKN090
      TEMPO 2205/2206 -TSRA BKN090CB
     FM220700 04013G19KT P6SM VCSH BKN090
     FM220900 06013KT P6SM SCT040=

USA.gov is the U.S. government's official web portal to all federal, state and local government web resources and services.